createdAt,value
2022-12-19T00:00:46.246Z,4.18
2022-12-19T00:03:13.538Z,7.15
2022-12-19T00:05:41.090Z,3.97
2022-12-19T00:08:17.141Z,3.92
2022-12-19T00:10:45.193Z,5.63
2022-12-19T00:13:14.748Z,5.43
2022-12-19T00:15:41.858Z,5.47
2022-12-19T00:18:09.035Z,5.28
2022-12-19T00:20:36.158Z,4.78
2022-12-19T00:23:03.296Z,5.75
2022-12-19T00:25:30.512Z,4.85
2022-12-19T00:27:58.306Z,4.70
2022-12-19T00:30:25.468Z,5.93
2022-12-19T00:32:53.335Z,5.53
2022-12-19T00:35:20.434Z,4.32
2022-12-19T00:48:47.412Z,7.35
2022-12-19T00:51:15.843Z,5.78
2022-12-19T00:53:43.333Z,5.65
2022-12-19T00:56:15.627Z,5.45
2022-12-19T00:58:46.861Z,5.28
2022-12-19T01:01:22.536Z,4.88
2022-12-19T01:04:26.111Z,5.22
2022-12-19T01:06:37.361Z,6.03
2022-12-19T01:09:04.798Z,4.38
2022-12-19T01:11:50.717Z,5.40
2022-12-19T01:14:22.849Z,3.70
2022-12-19T01:16:51.267Z,5.00
2022-12-19T01:19:18.509Z,4.88
2022-12-19T01:21:45.677Z,5.32
2022-12-19T01:24:13.779Z,2.60
2022-12-19T01:26:45.520Z,5.45
2022-12-19T01:29:12.687Z,5.00
2022-12-19T01:31:39.854Z,4.38
2022-12-19T01:34:07.044Z,4.25
2022-12-19T01:36:38.630Z,4.72
2022-12-19T01:39:07.618Z,4.13
2022-12-19T01:41:34.808Z,4.30
2022-12-19T01:44:06.337Z,4.10
2022-12-19T01:46:35.451Z,4.18
2022-12-19T01:49:03.308Z,4.57
2022-12-19T01:51:44.577Z,3.58
2022-12-19T01:54:14.454Z,3.75
2022-12-19T01:56:43.316Z,4.10
2022-12-19T01:59:14.904Z,5.05
2022-12-19T02:01:51.503Z,4.70
2022-12-19T02:04:20.816Z,4.57
2022-12-19T02:06:48.113Z,5.68
2022-12-19T02:09:15.334Z,7.68
2022-12-19T02:11:42.541Z,9.10
2022-12-19T02:14:09.832Z,12.80
2022-12-19T02:16:36.917Z,13.52
2022-12-19T02:19:33.357Z,15.32
2022-12-19T02:22:19.275Z,16.67
2022-12-19T02:24:57.969Z,16.45
2022-12-19T02:27:51.642Z,17.95
2022-12-19T02:30:33.263Z,15.77
2022-12-19T02:33:08.534Z,15.18
2022-12-19T02:35:41.433Z,14.27
2022-12-19T02:38:16.720Z,11.25
2022-12-19T02:41:07.274Z,11.90
2022-12-19T02:43:37.936Z,10.47
2022-12-19T02:46:05.619Z,10.20
2022-12-19T02:48:33.867Z,9.38
2022-12-19T02:51:00.991Z,7.85
2022-12-19T02:53:28.159Z,8.60
2022-12-19T02:56:10.539Z,7.25
2022-12-19T02:58:53.130Z,8.95
2022-12-19T03:01:20.729Z,8.18
2022-12-19T03:14:46.901Z,7.32
2022-12-19T03:17:14.123Z,7.18
2022-12-19T03:19:41.952Z,6.72
2022-12-19T03:22:09.264Z,6.60
2022-12-19T03:24:36.424Z,4.43
2022-12-19T03:27:12.075Z,7.00
2022-12-19T03:29:41.837Z,6.55
2022-12-19T03:32:14.921Z,5.85
2022-12-19T03:34:45.663Z,5.90
2022-12-19T03:37:15.990Z,4.47
2022-12-19T03:39:46.444Z,6.00
2022-12-19T03:42:34.041Z,6.00
2022-12-19T03:45:02.307Z,5.88
2022-12-19T03:47:34.497Z,6.60
2022-12-19T03:50:02.422Z,6.47
2022-12-19T03:52:41.537Z,6.10
2022-12-19T03:55:13.121Z,6.43
2022-12-19T03:57:48.794Z,5.70
2022-12-19T04:00:17.330Z,6.30
2022-12-19T04:02:45.517Z,4.93
2022-12-19T04:05:14.961Z,5.78
2022-12-19T04:07:42.457Z,5.57
2022-12-19T04:10:11.662Z,5.93
2022-12-19T04:12:43.681Z,6.13
2022-12-19T04:15:11.061Z,6.20
2022-12-19T04:17:41.301Z,5.93
2022-12-19T04:20:13.162Z,6.25
2022-12-19T04:22:49.019Z,6.20
2022-12-19T04:25:27.795Z,6.07
2022-12-19T04:28:00.850Z,5.43
2022-12-19T04:30:28.347Z,5.85
2022-12-19T04:32:56.010Z,6.70
2022-12-19T04:35:23.168Z,6.63
2022-12-19T04:37:50.408Z,7.25
2022-12-19T04:40:17.593Z,7.78
2022-12-19T04:42:45.140Z,8.25
2022-12-19T04:45:12.477Z,8.57
2022-12-19T04:47:39.990Z,8.98
2022-12-19T04:50:07.185Z,9.05
2022-12-19T04:52:34.604Z,8.60
2022-12-19T04:55:01.750Z,8.45
2022-12-19T04:57:32.074Z,7.07
2022-12-19T04:59:59.250Z,6.40
2022-12-19T05:02:26.599Z,6.07
2022-12-19T05:04:54.019Z,7.50
2022-12-19T05:07:21.240Z,8.77
2022-12-19T05:09:48.900Z,6.40
2022-12-19T05:12:16.055Z,6.82
2022-12-19T05:14:43.241Z,7.43
2022-12-19T05:17:10.350Z,7.32
2022-12-19T05:19:37.496Z,8.77
2022-12-19T05:22:04.686Z,10.25
2022-12-19T05:24:31.870Z,10.00
2022-12-19T05:26:59.325Z,9.48
2022-12-19T05:29:26.505Z,10.43
2022-12-19T05:31:53.664Z,9.48
2022-12-19T05:34:20.758Z,8.73
2022-12-19T05:36:48.035Z,9.02
2022-12-19T05:39:15.153Z,9.60
2022-12-19T05:41:46.310Z,8.45
2022-12-19T05:44:15.917Z,8.25
2022-12-19T05:46:43.097Z,9.43
2022-12-19T05:49:10.219Z,11.57
2022-12-19T05:51:38.199Z,11.02
2022-12-19T05:54:05.424Z,11.15
2022-12-19T05:56:32.541Z,13.77
2022-12-19T05:58:59.711Z,15.10
2022-12-19T06:01:28.054Z,17.65
2022-12-19T06:03:55.958Z,15.40
2022-12-19T06:06:24.580Z,16.70
2022-12-19T06:08:55.589Z,18.48
2022-12-19T06:11:22.867Z,15.20
2022-12-19T06:13:50.145Z,14.63
2022-12-19T06:16:18.475Z,12.82
2022-12-19T06:18:46.581Z,9.88
2022-12-19T06:21:18.078Z,10.15
2022-12-19T06:23:45.458Z,11.85
2022-12-19T06:26:18.564Z,10.30
2022-12-19T06:28:46.847Z,9.70
2022-12-19T06:31:14.134Z,10.57
2022-12-19T06:33:41.582Z,9.82
2022-12-19T06:36:11.210Z,10.57
2022-12-19T06:38:38.338Z,12.25
2022-12-19T06:41:24.513Z,12.13
2022-12-19T06:43:53.549Z,11.57
2022-12-19T06:46:21.519Z,11.93
2022-12-19T06:48:48.785Z,15.10
2022-12-19T06:51:15.892Z,10.52
2022-12-19T06:53:43.033Z,9.65
2022-12-19T06:56:10.254Z,11.25
2022-12-19T06:58:37.359Z,10.45
2022-12-19T07:01:04.541Z,10.13
2022-12-19T07:03:33.640Z,10.10
2022-12-19T07:06:00.758Z,10.55
2022-12-19T07:08:29.559Z,10.00
2022-12-19T07:10:57.201Z,9.85
2022-12-19T07:13:24.427Z,10.40
2022-12-19T07:15:53.340Z,9.65
2022-12-19T07:18:20.530Z,11.52
2022-12-19T07:20:47.658Z,11.00
2022-12-19T07:23:17.354Z,12.82
2022-12-19T07:25:44.595Z,13.07
2022-12-19T07:28:12.058Z,13.90
2022-12-19T07:30:39.215Z,13.98
2022-12-19T07:33:08.886Z,14.43
2022-12-19T07:35:37.989Z,15.20
2022-12-19T07:38:06.219Z,14.77
2022-12-19T07:40:33.819Z,14.05
2022-12-19T07:43:01.674Z,13.85
2022-12-19T07:45:29.361Z,15.35
2022-12-19T07:47:56.612Z,14.98
2022-12-19T07:50:23.722Z,17.65
2022-12-19T07:52:50.908Z,15.77
2022-12-19T07:55:18.029Z,14.50
2022-12-19T07:57:45.201Z,13.50
2022-12-19T08:00:12.574Z,13.68
2022-12-19T08:02:39.851Z,13.40
2022-12-19T08:05:07.271Z,12.15
2022-12-19T08:07:34.476Z,9.80
2022-12-19T08:10:01.849Z,10.63
2022-12-19T08:12:28.995Z,11.50
2022-12-19T08:14:57.449Z,12.77
2022-12-19T08:17:24.942Z,14.00
2022-12-19T08:19:52.118Z,11.73
2022-12-19T08:22:19.364Z,11.52
2022-12-19T08:24:46.695Z,12.40
2022-12-19T08:27:13.858Z,11.18
2022-12-19T08:29:41.041Z,9.93
2022-12-19T08:32:08.131Z,9.20
2022-12-19T08:34:35.244Z,9.77
2022-12-19T08:37:02.446Z,9.02
2022-12-19T08:39:29.615Z,10.02
2022-12-19T08:41:56.731Z,9.90
2022-12-19T08:44:24.055Z,10.73
2022-12-19T08:46:51.188Z,10.65
2022-12-19T08:49:18.944Z,11.18
2022-12-19T08:51:46.599Z,10.45
2022-12-19T08:54:13.758Z,10.55
2022-12-19T08:56:45.997Z,10.35
2022-12-19T08:59:22.151Z,8.30
2022-12-19T09:01:58.897Z,11.98
2022-12-19T09:05:57.616Z,9.25
2022-12-19T09:07:15.607Z,8.70
2022-12-19T09:09:43.458Z,9.52
2022-12-19T09:12:10.583Z,9.40
2022-12-19T09:14:37.734Z,10.70
2022-12-19T09:17:05.111Z,9.65
2022-12-19T09:19:32.492Z,9.65
2022-12-19T09:21:59.669Z,9.25
2022-12-19T09:24:26.881Z,9.25
2022-12-19T09:26:54.099Z,9.85
2022-12-19T09:29:22.197Z,11.20
2022-12-19T09:31:55.526Z,10.65
2022-12-19T09:34:24.458Z,10.20
2022-12-19T09:36:58.986Z,11.00
2022-12-19T09:39:26.103Z,10.68
2022-12-19T09:42:09.956Z,11.07
2022-12-19T09:44:46.268Z,11.93
2022-12-19T09:47:33.675Z,11.60
2022-12-19T09:50:02.208Z,12.13
2022-12-19T09:52:44.191Z,14.15
2022-12-19T09:55:26.097Z,14.18
2022-12-19T09:57:58.177Z,15.27
2022-12-19T10:00:30.361Z,15.10
2022-12-19T10:03:00.660Z,13.93
2022-12-19T10:06:07.383Z,13.60
2022-12-19T10:08:18.489Z,13.70
2022-12-19T10:12:37.534Z,14.70
2022-12-19T10:14:03.716Z,15.32
2022-12-19T10:16:30.865Z,12.93
2022-12-19T10:18:59.203Z,14.45
2022-12-19T10:22:07.608Z,13.30
2022-12-19T10:24:39.801Z,14.77
2022-12-19T10:27:14.526Z,13.95
2022-12-19T10:29:44.406Z,12.85
2022-12-19T10:32:14.539Z,12.32
2022-12-19T10:34:43.685Z,12.15
2022-12-19T10:37:25.761Z,12.75
2022-12-19T10:40:09.062Z,11.85
2022-12-19T10:42:52.451Z,14.00
2022-12-19T10:45:20.889Z,11.15
2022-12-19T10:47:50.581Z,11.32
2022-12-19T10:50:21.756Z,12.93
2022-12-19T10:52:48.922Z,12.18
2022-12-19T10:55:31.205Z,10.70
2022-12-19T10:57:59.885Z,9.38
2022-12-19T11:00:28.420Z,10.27
2022-12-19T11:03:16.851Z,9.75
2022-12-19T11:05:58.343Z,10.25
2022-12-19T11:08:30.862Z,11.38
2022-12-19T11:12:01.938Z,10.95
2022-12-19T11:18:57.261Z,11.35
2022-12-19T11:23:23.428Z,10.10
2022-12-19T11:29:16.985Z,11.38
2022-12-19T11:29:44.433Z,11.77
2022-12-19T11:30:21.352Z,10.82
2022-12-19T11:30:26.149Z,11.55
2022-12-19T11:33:29.352Z,9.38
2022-12-19T11:35:58.610Z,9.57
2022-12-19T11:38:39.488Z,10.15
2022-12-19T11:41:18.028Z,7.72
2022-12-19T11:43:58.831Z,9.75
2022-12-19T11:46:49.341Z,9.45
2022-12-19T11:49:26.469Z,8.65
2022-12-19T11:51:54.283Z,8.70
2022-12-19T11:54:24.412Z,9.25
2022-12-19T11:56:52.018Z,8.38
2022-12-19T11:59:21.011Z,7.60
2022-12-19T12:01:54.219Z,8.13
2022-12-19T12:04:36.789Z,8.93
2022-12-19T12:07:13.035Z,8.10
2022-12-19T12:13:54.276Z,9.73
2022-12-19T12:20:13.721Z,9.15
2022-12-19T12:28:10.690Z,11.40
2022-12-19T12:31:04.227Z,12.80
2022-12-19T12:31:20.260Z,13.77
2022-12-19T12:31:47.729Z,15.18
2022-12-19T12:31:48.509Z,14.25
2022-12-19T12:31:57.251Z,13.60
2022-12-19T12:36:51.511Z,13.65
2022-12-19T12:39:46.472Z,14.07
2022-12-19T12:42:32.401Z,13.13
2022-12-19T12:45:00.457Z,14.30
2022-12-19T12:47:29.306Z,11.82
2022-12-19T12:49:58.374Z,13.63
2022-12-19T12:52:36.983Z,13.20
2022-12-19T12:55:05.513Z,13.05
2022-12-19T12:57:37.502Z,13.43
2022-12-19T13:00:22.303Z,13.07
2022-12-19T13:02:52.607Z,13.45
2022-12-19T13:05:31.752Z,12.82
2022-12-19T13:07:59.075Z,13.27
2022-12-19T13:10:30.596Z,13.25
2022-12-19T13:12:59.849Z,13.98
2022-12-19T13:15:32.529Z,14.68
2022-12-19T13:18:10.567Z,17.95
2022-12-19T13:20:40.809Z,15.18
2022-12-19T13:23:21.861Z,15.98
2022-12-19T13:25:53.524Z,14.65
2022-12-19T13:28:23.791Z,13.70
2022-12-19T13:31:20.470Z,15.43
2022-12-19T13:34:08.836Z,16.02
2022-12-19T13:40:00.881Z,15.00
2022-12-19T13:40:14.155Z,14.88
2022-12-19T13:43:11.559Z,14.40
2022-12-19T13:45:40.656Z,13.80
2022-12-19T13:48:13.498Z,14.52
2022-12-19T13:50:42.084Z,14.85
2022-12-19T13:53:17.064Z,15.50
2022-12-19T13:55:44.633Z,15.30
2022-12-19T13:58:28.859Z,16.27
2022-12-19T14:00:58.864Z,17.27
2022-12-19T14:03:34.278Z,17.35
2022-12-19T14:06:17.779Z,16.92
2022-12-19T14:08:46.780Z,17.33
2022-12-19T14:11:36.007Z,16.73
2022-12-19T14:14:27.519Z,17.40
2022-12-19T14:16:56.271Z,16.35
2022-12-19T14:19:30.892Z,15.02
2022-12-19T14:22:15.758Z,14.88
2022-12-19T14:25:27.123Z,16.50
2022-12-19T14:28:20.370Z,14.02
2022-12-19T14:30:48.673Z,13.93
2022-12-19T14:33:53.315Z,15.75
2022-12-19T14:36:14.602Z,14.38
2022-12-19T14:39:27.557Z,15.40
2022-12-19T14:42:00.584Z,15.48
2022-12-19T14:52:08.327Z,15.52
2022-12-19T14:54:07.297Z,18.15
2022-12-19T14:54:21.706Z,16.60
2022-12-19T14:54:29.929Z,17.60
2022-12-19T14:58:57.814Z,15.93
2022-12-19T15:01:25.462Z,16.70
2022-12-19T15:04:52.256Z,17.80
2022-12-19T15:07:10.035Z,15.85
2022-12-19T15:11:03.267Z,16.55
2022-12-19T15:14:55.229Z,16.30
2022-12-19T15:16:05.003Z,16.45
2022-12-19T15:18:35.033Z,16.63
2022-12-19T15:21:06.517Z,16.52
2022-12-19T15:23:33.663Z,15.13
2022-12-19T15:26:04.599Z,16.23
2022-12-19T15:28:39.209Z,15.05
2022-12-19T15:31:10.748Z,14.48
2022-12-19T15:33:48.022Z,14.05
2022-12-19T15:36:25.126Z,13.18
2022-12-19T15:38:52.249Z,13.38
2022-12-19T15:41:23.554Z,13.40
2022-12-19T15:44:07.026Z,13.73
2022-12-19T15:46:34.398Z,13.90
2022-12-19T15:49:02.285Z,12.48
2022-12-19T15:51:29.501Z,12.77
2022-12-19T15:54:04.138Z,13.80
2022-12-19T15:56:46.759Z,13.85
2022-12-19T16:01:41.043Z,13.57
2022-12-19T16:04:13.644Z,12.90
2022-12-19T16:06:40.989Z,14.40
2022-12-19T16:09:27.656Z,13.95
2022-12-19T16:11:55.461Z,13.57
2022-12-19T16:14:23.074Z,14.68
2022-12-19T16:16:52.568Z,14.45
2022-12-19T16:19:27.554Z,15.30
2022-12-19T16:21:55.047Z,14.38
2022-12-19T16:24:22.478Z,15.32
2022-12-19T16:27:00.463Z,16.33
2022-12-19T16:29:28.675Z,16.10
2022-12-19T16:31:56.601Z,14.52
2022-12-19T16:34:25.254Z,16.27
2022-12-19T16:36:52.470Z,16.05
2022-12-19T16:39:19.650Z,16.42
2022-12-19T16:41:47.339Z,15.70
2022-12-19T16:44:19.844Z,16.00
2022-12-19T16:46:51.155Z,17.27
2022-12-19T16:49:25.769Z,15.68
2022-12-19T16:51:52.968Z,16.80
2022-12-19T16:54:20.151Z,16.45
2022-12-19T16:56:49.393Z,16.58
2022-12-19T16:59:25.054Z,17.77
2022-12-19T17:01:52.391Z,17.75
2022-12-19T17:04:21.565Z,17.45
2022-12-19T17:06:49.936Z,19.30
2022-12-19T17:09:18.408Z,19.85
2022-12-19T17:11:57.586Z,18.40
2022-12-19T17:14:26.603Z,23.38
2022-12-19T17:16:55.453Z,24.05
2022-12-19T17:19:37.655Z,23.85
2022-12-19T17:22:11.146Z,25.55
2022-12-19T17:24:38.342Z,25.73
2022-12-19T17:27:06.009Z,28.15
2022-12-19T17:29:33.115Z,22.65
2022-12-19T17:32:00.403Z,23.38
2022-12-19T17:34:32.108Z,24.73
2022-12-19T17:37:00.516Z,26.25
2022-12-19T17:39:28.753Z,25.95
2022-12-19T17:41:56.413Z,26.98
2022-12-19T17:44:23.903Z,28.38
2022-12-19T17:46:51.277Z,28.17
2022-12-19T17:49:24.756Z,27.52
2022-12-19T17:51:52.346Z,28.00
2022-12-19T17:54:20.266Z,28.30
2022-12-19T17:56:47.479Z,31.95
2022-12-19T17:59:14.606Z,34.03
2022-12-19T18:01:42.273Z,32.72
2022-12-19T18:04:14.147Z,30.88
2022-12-19T18:06:42.287Z,28.15
2022-12-19T18:09:17.769Z,25.95
2022-12-19T18:11:45.374Z,25.42
2022-12-19T18:14:12.541Z,24.23
2022-12-19T18:16:40.038Z,23.48
2022-12-19T18:19:07.737Z,23.05
2022-12-19T18:21:34.911Z,23.88
2022-12-19T18:24:02.109Z,21.45
2022-12-19T18:26:29.489Z,23.20
2022-12-19T18:28:56.599Z,20.45
2022-12-19T18:31:25.829Z,22.05
2022-12-19T18:33:54.214Z,21.67
2022-12-19T18:36:28.507Z,19.70
2022-12-19T18:38:56.330Z,18.67
2022-12-19T18:41:23.835Z,19.88
2022-12-19T18:43:51.140Z,18.05
2022-12-19T18:46:28.844Z,17.55
2022-12-19T18:48:56.240Z,17.48
2022-12-19T18:51:23.598Z,18.80
2022-12-19T18:53:51.019Z,18.13
2022-12-19T18:56:18.473Z,18.13
2022-12-19T18:58:45.596Z,19.92
2022-12-19T19:01:16.592Z,19.45
2022-12-19T19:03:47.928Z,19.45
2022-12-19T19:06:22.833Z,19.77
2022-12-19T19:08:53.101Z,19.65
2022-12-19T19:11:23.347Z,19.13
2022-12-19T19:13:50.816Z,19.13
2022-12-19T19:16:20.484Z,20.13
2022-12-19T19:18:49.101Z,19.67
2022-12-19T19:21:16.541Z,19.30
2022-12-19T19:23:47.147Z,17.95
2022-12-19T19:26:14.284Z,19.42
2022-12-19T19:28:41.998Z,18.48
2022-12-19T19:31:16.180Z,16.65
2022-12-19T19:33:46.310Z,17.90
2022-12-19T19:36:19.130Z,17.77
2022-12-19T19:38:48.187Z,18.20
2022-12-19T19:41:15.303Z,18.83
2022-12-19T19:43:42.497Z,20.50
2022-12-19T19:46:09.941Z,18.58
2022-12-19T19:48:37.291Z,21.13
2022-12-19T19:51:04.563Z,21.48
2022-12-19T19:53:31.717Z,22.52
2022-12-19T19:56:00.780Z,22.88
2022-12-19T19:58:28.828Z,23.77
2022-12-19T20:00:56.894Z,23.40
2022-12-19T20:03:24.497Z,22.33
2022-12-19T20:05:51.927Z,22.33
2022-12-19T20:08:19.126Z,24.23
2022-12-19T20:10:46.244Z,23.35
2022-12-19T20:13:13.570Z,23.85
2022-12-19T20:15:46.018Z,23.83
2022-12-19T20:18:16.580Z,25.45
2022-12-19T20:20:43.780Z,24.35
2022-12-19T20:23:10.904Z,25.85
2022-12-19T20:25:39.937Z,23.02
2022-12-19T20:28:07.062Z,23.95
2022-12-19T20:30:34.244Z,24.77
2022-12-19T20:33:01.434Z,23.30
2022-12-19T20:35:28.581Z,21.80
2022-12-19T20:37:55.714Z,23.77
2022-12-19T20:40:22.895Z,28.48
2022-12-19T20:42:50.150Z,26.67
2022-12-19T20:45:17.290Z,26.70
2022-12-19T20:47:44.467Z,26.23
2022-12-19T20:50:12.897Z,24.67
2022-12-19T20:52:40.072Z,23.00
2022-12-19T20:55:07.620Z,19.50
2022-12-19T20:57:34.903Z,17.38
2022-12-19T21:00:02.043Z,18.30
2022-12-19T21:02:46.275Z,17.08
2022-12-19T21:05:17.152Z,16.63
2022-12-19T21:07:44.684Z,16.63
2022-12-19T21:10:11.934Z,15.65
2022-12-19T21:12:43.842Z,16.08
2022-12-19T21:15:14.748Z,15.65
2022-12-19T21:17:41.893Z,16.05
2022-12-19T21:20:09.425Z,17.95
2022-12-19T21:22:36.651Z,16.40
2022-12-19T21:25:04.154Z,15.10
2022-12-19T21:27:31.286Z,14.30
2022-12-19T21:29:58.474Z,14.18
2022-12-19T21:32:25.625Z,12.90
2022-12-19T21:34:55.828Z,13.18
2022-12-19T21:37:24.339Z,13.93
2022-12-19T21:39:51.561Z,12.75
2022-12-19T21:42:18.737Z,14.07
2022-12-19T21:44:45.934Z,13.15
2022-12-19T21:47:13.201Z,13.90
2022-12-19T21:49:40.456Z,16.25
2022-12-19T21:52:08.324Z,15.50
2022-12-19T21:54:35.459Z,14.32
2022-12-19T21:57:02.594Z,13.55
2022-12-19T21:59:29.829Z,15.60
2022-12-19T22:01:57.949Z,15.27
2022-12-19T22:04:27.432Z,14.80
2022-12-19T22:06:54.828Z,15.70
2022-12-19T22:09:22.713Z,16.63
2022-12-19T22:11:49.918Z,16.00
2022-12-19T22:14:17.608Z,14.15
2022-12-19T22:16:44.956Z,15.23
2022-12-19T22:19:14.036Z,13.88
2022-12-19T22:21:41.327Z,14.85
2022-12-19T22:24:08.746Z,14.50
2022-12-19T22:26:36.946Z,13.35
2022-12-19T22:29:07.058Z,14.43
2022-12-19T22:31:34.723Z,14.30
2022-12-19T22:34:03.171Z,14.48
2022-12-19T22:36:31.631Z,13.38
2022-12-19T22:38:59.771Z,14.43
2022-12-19T22:41:27.494Z,14.85
2022-12-19T22:43:55.160Z,12.57
2022-12-19T22:46:26.522Z,13.18
2022-12-19T22:48:55.662Z,13.07
2022-12-19T22:51:22.834Z,13.05
2022-12-19T22:53:49.983Z,12.65
2022-12-19T22:56:19.141Z,11.52
2022-12-19T22:58:48.392Z,12.68
2022-12-19T23:01:18.748Z,12.73
2022-12-19T23:03:47.034Z,11.50
2022-12-19T23:06:14.727Z,12.75
2022-12-19T23:08:42.168Z,11.55
2022-12-19T23:11:11.794Z,11.95
2022-12-19T23:13:39.592Z,13.73
2022-12-19T23:16:07.196Z,13.00
2022-12-19T23:18:34.547Z,13.07
2022-12-19T23:21:09.361Z,13.02
2022-12-19T23:23:42.066Z,12.52
2022-12-19T23:26:15.585Z,12.13
2022-12-19T23:28:43.925Z,13.00
2022-12-19T23:31:12.558Z,12.48
2022-12-19T23:33:39.867Z,11.63
2022-12-19T23:36:07.579Z,13.13
2022-12-19T23:38:34.742Z,12.43
2022-12-19T23:41:03.025Z,12.82
2022-12-19T23:43:30.476Z,13.23
2022-12-19T23:45:57.649Z,11.77
2022-12-19T23:48:25.690Z,13.75
2022-12-19T23:51:02.952Z,13.07
2022-12-19T23:53:30.644Z,12.13
2022-12-19T23:55:58.178Z,12.30
2022-12-19T23:58:25.692Z,12.93
